Time;durP1;ratioP1;P1;durP2;ratioP2;P2;SDS_P1;SDS_P2;PMS_P1;PMS_P2;Temp;Humidity;BMP_temperature;BMP_pressure;BME280_temperature;BME280_humidity;BME280_pressure;Samples;Min_cycle;Max_cycle;Signal;HPM_P1;HPM_P2
2022/01/09 00:00:16;;;;;;;38.53;5.57;;;5.70;99.90;;;;;;5041505;28;20220;-62
2022/01/09 00:02:45;;;;;;;37.87;6.07;;;5.70;99.90;;;;;;5056689;28;20197;-61
2022/01/09 00:05:14;;;;;;;36.60;5.90;;;5.80;99.90;;;;;;5058296;28;20199;-61
2022/01/09 00:07:43;;;;;;;27.07;5.10;;;5.90;99.90;;;;;;5047439;28;20294;-61
2022/01/09 00:10:13;;;;;;;29.33;5.23;;;5.90;99.90;;;;;;5046679;28;20247;-61
2022/01/09 00:12:42;;;;;;;37.03;7.00;;;5.90;99.90;;;;;;5043853;28;20193;-61
2022/01/09 00:15:11;;;;;;;35.07;6.10;;;5.90;99.90;;;;;;5039363;28;20212;-62
2022/01/09 00:17:40;;;;;;;38.10;5.63;;;5.90;99.90;;;;;;5046414;28;20234;-61
2022/01/09 00:20:11;;;;;;;34.70;5.93;;;5.90;99.90;;;;;;5042481;28;20217;-62
2022/01/09 00:22:44;;;;;;;32.80;5.20;;;5.90;99.90;;;;;;5039906;28;20242;-61
2022/01/09 00:25:15;;;;;;;36.00;6.83;;;6.00;99.90;;;;;;5045603;28;20188;-61
2022/01/09 00:27:44;;;;;;;39.57;6.70;;;6.00;99.90;;;;;;5045433;28;20789;-61
2022/01/09 00:30:15;;;;;;;39.40;5.50;;;6.00;99.90;;;;;;5047261;28;20220;-61
2022/01/09 00:32:43;;;;;;;37.03;5.10;;;6.00;99.90;;;;;;5046085;28;20287;-61
2022/01/09 00:35:13;;;;;;;41.73;6.47;;;6.00;99.90;;;;;;5040944;28;20232;-61
2022/01/09 00:37:42;;;;;;;34.33;5.63;;;5.90;99.90;;;;;;5045354;28;20203;-61
2022/01/09 00:40:12;;;;;;;28.97;5.70;;;5.90;99.90;;;;;;5046896;28;20258;-61
2022/01/09 00:42:43;;;;;;;35.60;5.70;;;6.00;99.90;;;;;;5043557;28;20274;-61
2022/01/09 00:45:13;;;;;;;31.30;4.87;;;6.00;99.90;;;;;;5045985;28;20615;-61
2022/01/09 00:47:41;;;;;;;35.17;5.80;;;6.00;99.90;;;;;;5046646;28;20280;-62
2022/01/09 00:50:12;;;;;;;27.13;5.03;;;6.00;99.90;;;;;;5040656;28;20249;-61
2022/01/09 00:52:40;;;;;;;31.83;4.93;;;6.00;99.90;;;;;;5043726;28;20652;-61
2022/01/09 00:55:10;;;;;;;25.37;4.73;;;6.10;99.90;;;;;;5034150;28;20637;-60
2022/01/09 00:57:39;;;;;;;28.77;4.40;;;6.10;99.90;;;;;;5044923;28;20203;-61
2022/01/09 01:00:10;;;;;;;27.73;4.43;;;6.10;99.90;;;;;;5047736;28;20913;-61
2022/01/09 01:02:38;;;;;;;23.07;4.33;;;6.10;99.90;;;;;;5046244;28;20203;-61
2022/01/09 01:05:44;;;;;;;22.70;5.37;;;6.10;99.90;;;;;;5049559;28;20192;-61
2022/01/09 01:08:13;;;;;;;29.53;5.23;;;6.10;99.90;;;;;;5048580;28;20223;-61
2022/01/09 01:10:42;;;;;;;36.47;4.77;;;6.00;99.90;;;;;;5050139;28;20709;-61
2022/01/09 01:13:10;;;;;;;28.20;4.77;;;5.90;99.90;;;;;;5046085;28;20227;-61
2022/01/09 01:15:40;;;;;;;33.37;5.47;;;6.00;99.90;;;;;;5049302;28;20216;-61
2022/01/09 01:18:08;;;;;;;26.77;4.70;;;6.00;99.90;;;;;;5048719;28;20207;-61
2022/01/09 01:20:37;;;;;;;32.23;5.13;;;6.00;99.90;;;;;;5045964;28;20199;-61
2022/01/09 01:23:05;;;;;;;34.23;4.90;;;6.00;99.90;;;;;;5045018;28;20228;-61
2022/01/09 01:25:35;;;;;;;22.57;5.27;;;6.00;99.90;;;;;;5051018;28;20644;-61
2022/01/09 01:28:04;;;;;;;31.13;5.13;;;6.00;99.90;;;;;;5044729;28;20271;-62
2022/01/09 01:30:32;;;;;;;29.23;4.87;;;5.90;99.90;;;;;;5048311;28;20208;-61
2022/01/09 01:33:02;;;;;;;24.77;4.67;;;5.90;99.90;;;;;;5045734;28;21556;-61
2022/01/09 01:35:30;;;;;;;33.23;4.90;;;5.90;99.90;;;;;;5044927;28;20595;-61
2022/01/09 01:37:58;;;;;;;28.37;3.80;;;6.00;99.90;;;;;;5044111;28;20283;-61
2022/01/09 01:40:26;;;;;;;35.50;4.87;;;6.00;99.90;;;;;;5047828;28;20259;-61
2022/01/09 01:42:55;;;;;;;23.60;4.40;;;5.90;99.90;;;;;;5050061;28;20200;-61
2022/01/09 01:45:23;;;;;;;21.67;4.00;;;5.90;99.90;;;;;;5060794;28;20217;-60
2022/01/09 01:47:52;;;;;;;26.27;4.63;;;5.90;99.90;;;;;;5046150;28;20212;-61
2022/01/09 01:50:21;;;;;;;25.47;4.77;;;5.90;99.90;;;;;;5024375;28;20224;-61
2022/01/09 01:52:51;;;;;;;19.20;3.87;;;6.00;99.90;;;;;;5043727;28;20614;-61
2022/01/09 01:55:20;;;;;;;31.57;3.87;;;5.90;99.90;;;;;;5031722;28;20848;-60
2022/01/09 01:57:49;;;;;;;19.53;4.10;;;5.80;99.90;;;;;;5048795;28;20284;-61
2022/01/09 02:00:20;;;;;;;23.53;4.30;;;5.80;99.90;;;;;;5047471;28;20987;-61
2022/01/09 02:02:48;;;;;;;21.90;4.60;;;5.80;99.90;;;;;;5028110;28;20194;-60
2022/01/09 02:05:17;;;;;;;25.07;4.10;;;5.70;99.90;;;;;;5041992;28;20201;-61
2022/01/09 02:07:47;;;;;;;21.43;3.93;;;5.70;99.90;;;;;;5049952;28;20208;-61
2022/01/09 02:10:15;;;;;;;24.03;4.23;;;5.70;99.90;;;;;;5046639;28;20235;-61
2022/01/09 02:12:45;;;;;;;17.77;3.60;;;5.70;99.90;;;;;;5043987;28;20240;-61
2022/01/09 02:15:33;;;;;;;20.40;3.87;;;5.70;99.90;;;;;;5048474;28;20255;-61
2022/01/09 02:18:02;;;;;;;22.90;3.57;;;5.70;99.90;;;;;;5045423;28;20618;-61
2022/01/09 02:20:32;;;;;;;18.37;3.83;;;5.70;99.90;;;;;;5046860;28;20192;-61
2022/01/09 02:23:00;;;;;;;18.27;4.33;;;5.70;99.90;;;;;;5048352;28;20275;-61
2022/01/09 02:25:29;;;;;;;16.43;3.83;;;5.70;99.90;;;;;;5048143;28;20197;-61
2022/01/09 02:27:58;;;;;;;13.27;3.57;;;5.70;99.90;;;;;;5049102;28;20197;-61
2022/01/09 02:30:26;;;;;;;15.97;3.90;;;5.60;99.90;;;;;;5046354;28;20294;-61
2022/01/09 02:32:54;;;;;;;17.73;3.90;;;5.60;99.90;;;;;;5048161;28;20208;-62
2022/01/09 02:35:24;;;;;;;22.03;3.77;;;5.60;99.90;;;;;;5047917;28;20289;-61
2022/01/09 02:37:54;;;;;;;18.60;4.27;;;5.50;99.90;;;;;;5040613;28;20671;-61
2022/01/09 02:40:23;;;;;;;19.33;4.10;;;5.50;99.90;;;;;;5045333;28;20200;-61
2022/01/09 02:42:53;;;;;;;16.90;4.43;;;5.50;99.90;;;;;;5049387;28;20220;-61
2022/01/09 02:45:23;;;;;;;21.83;4.37;;;5.50;99.90;;;;;;5044390;28;20280;-61
2022/01/09 02:47:54;;;;;;;20.40;3.63;;;5.50;99.90;;;;;;5047815;28;20217;-61
2022/01/09 02:50:33;;;;;;;21.20;3.80;;;5.50;99.90;;;;;;5043857;28;20297;-61
2022/01/09 02:53:13;;;;;;;22.30;3.50;;;5.50;99.90;;;;;;5047431;28;20284;-61
2022/01/09 02:55:42;;;;;;;11.57;3.43;;;5.50;99.90;;;;;;5049011;28;20197;-61
2022/01/09 02:58:11;;;;;;;17.17;4.20;;;5.50;99.90;;;;;;5045496;28;20832;-61
2022/01/09 03:00:42;;;;;;;20.13;3.90;;;5.50;99.90;;;;;;5047605;28;20247;-61
2022/01/09 03:03:12;;;;;;;18.67;3.57;;;5.50;99.90;;;;;;5043636;28;20195;-61
2022/01/09 03:05:41;;;;;;;19.67;3.77;;;5.50;99.90;;;;;;5046983;28;20197;-61
2022/01/09 03:08:11;;;;;;;15.03;3.50;;;5.50;99.90;;;;;;5047438;28;20231;-61
2022/01/09 03:10:40;;;;;;;20.03;3.83;;;5.50;99.90;;;;;;5064285;28;20264;-61
2022/01/09 03:13:09;;;;;;;19.20;3.57;;;5.40;99.90;;;;;;5047291;28;20279;-61
2022/01/09 03:15:37;;;;;;;12.80;2.57;;;5.40;99.90;;;;;;5048578;28;20291;-61
2022/01/09 03:18:06;;;;;;;18.20;3.17;;;5.40;99.90;;;;;;5044425;28;20236;-61
2022/01/09 03:20:34;;;;;;;11.63;3.20;;;5.50;99.90;;;;;;5044787;28;20204;-61
2022/01/09 03:23:03;;;;;;;14.43;3.57;;;5.40;99.90;;;;;;5039975;28;20847;-61
2022/01/09 03:25:33;;;;;;;15.40;3.00;;;5.50;99.90;;;;;;5048737;28;20243;-61
2022/01/09 03:28:01;;;;;;;11.03;3.00;;;5.50;99.90;;;;;;5045262;28;20638;-61
2022/01/09 03:30:29;;;;;;;15.00;3.13;;;5.40;99.90;;;;;;5043531;28;20291;-61
2022/01/09 03:32:58;;;;;;;12.93;3.13;;;5.50;99.90;;;;;;5045505;28;20212;-60
2022/01/09 03:35:28;;;;;;;15.47;3.17;;;5.50;99.90;;;;;;5045884;28;20243;-61
2022/01/09 03:37:57;;;;;;;26.50;3.40;;;5.50;99.90;;;;;;5046094;28;20747;-61
2022/01/09 03:40:28;;;;;;;9.70;2.70;;;5.50;99.90;;;;;;5045672;28;20271;-61
2022/01/09 03:42:58;;;;;;;13.77;3.57;;;5.50;99.90;;;;;;5046392;28;20666;-61
2022/01/09 03:45:27;;;;;;;21.77;2.87;;;5.50;99.90;;;;;;5046107;28;20647;-61
2022/01/09 03:47:56;;;;;;;16.73;3.63;;;5.60;99.90;;;;;;5046480;28;20199;-61
2022/01/09 03:50:26;;;;;;;14.17;3.20;;;5.60;99.90;;;;;;5044733;28;20244;-61
2022/01/09 03:52:54;;;;;;;14.67;3.20;;;5.50;99.90;;;;;;5045209;28;20209;-61
2022/01/09 03:55:24;;;;;;;15.37;3.60;;;5.50;99.90;;;;;;5045544;28;20572;-61
2022/01/09 03:57:52;;;;;;;16.77;3.13;;;5.50;99.90;;;;;;5039691;28;20188;-61
2022/01/09 04:00:24;;;;;;;25.83;3.50;;;5.50;99.90;;;;;;5031273;28;20785;-61
2022/01/09 04:02:54;;;;;;;12.23;2.93;;;5.40;99.90;;;;;;5046631;28;20284;-61
2022/01/09 04:05:23;;;;;;;12.00;2.83;;;5.40;99.90;;;;;;5040552;28;20205;-61
2022/01/09 04:07:51;;;;;;;20.43;3.23;;;5.40;99.90;;;;;;5042926;28;20254;-61
2022/01/09 04:10:41;;;;;;;13.47;3.03;;;5.30;99.90;;;;;;5044591;28;20275;-61
2022/01/09 04:13:12;;;;;;;16.53;3.23;;;5.20;99.90;;;;;;5048437;28;20208;-60
2022/01/09 04:15:46;;;;;;;18.60;3.27;;;5.20;99.90;;;;;;5048365;28;20230;-61
2022/01/09 04:18:16;;;;;;;19.80;3.40;;;5.20;99.90;;;;;;5041937;28;20257;-61
2022/01/09 04:20:44;;;;;;;9.40;3.10;;;5.20;99.90;;;;;;5044929;28;20664;-61
2022/01/09 04:23:13;;;;;;;15.73;3.30;;;5.20;99.90;;;;;;5046522;28;20205;-61
2022/01/09 04:25:42;;;;;;;16.77;3.17;;;5.20;99.90;;;;;;5045710;28;20232;-61
2022/01/09 04:28:11;;;;;;;14.53;2.93;;;5.20;99.90;;;;;;5043923;28;20402;-61
2022/01/09 04:30:42;;;;;;;17.97;3.37;;;5.10;99.90;;;;;;5037714;28;20717;-61
2022/01/09 04:33:10;;;;;;;11.60;2.87;;;5.10;99.90;;;;;;5045050;28;20586;-61
2022/01/09 04:35:40;;;;;;;16.20;3.00;;;5.00;99.90;;;;;;5048335;28;20240;-61
2022/01/09 04:38:08;;;;;;;11.33;2.93;;;5.00;99.90;;;;;;5049158;28;20228;-61
2022/01/09 04:40:37;;;;;;;15.43;2.73;;;5.00;99.90;;;;;;5049428;28;20193;-61
2022/01/09 04:43:08;;;;;;;12.57;2.90;;;4.90;99.90;;;;;;5050695;28;20287;-61
2022/01/09 04:45:36;;;;;;;15.63;3.03;;;4.80;99.90;;;;;;5049415;28;20220;-61
2022/01/09 04:48:09;;;;;;;11.57;3.03;;;4.80;99.90;;;;;;5048194;28;20189;-61
2022/01/09 04:50:39;;;;;;;19.10;3.43;;;4.70;99.90;;;;;;5044274;28;20236;-61
2022/01/09 04:53:09;;;;;;;9.47;2.87;;;4.70;99.90;;;;;;5049247;28;20239;-61
2022/01/09 04:55:41;;;;;;;15.53;2.97;;;4.60;99.90;;;;;;5047217;28;21611;-61
2022/01/09 04:58:10;;;;;;;15.33;3.43;;;4.60;99.90;;;;;;5049306;28;20201;-61
2022/01/09 05:00:40;;;;;;;15.47;3.13;;;4.60;99.90;;;;;;5047341;28;20284;-61
2022/01/09 05:03:12;;;;;;;10.27;3.00;;;4.60;99.90;;;;;;5049744;28;20240;-61
2022/01/09 05:05:41;;;;;;;15.00;2.73;;;4.70;99.90;;;;;;5045983;28;20203;-61
2022/01/09 05:08:09;;;;;;;17.53;3.03;;;4.70;99.90;;;;;;5050284;28;20239;-61
2022/01/09 05:10:38;;;;;;;16.13;3.10;;;4.70;99.90;;;;;;5049141;28;20258;-61
2022/01/09 05:13:06;;;;;;;12.60;3.00;;;4.70;99.90;;;;;;5050174;28;20259;-61
2022/01/09 05:15:34;;;;;;;14.97;3.23;;;4.70;99.90;;;;;;5049473;28;20227;-61
2022/01/09 05:18:11;;;;;;;12.23;3.13;;;4.70;99.90;;;;;;5047548;28;20192;-61
2022/01/09 05:20:41;;;;;;;16.50;3.10;;;4.70;99.90;;;;;;5043790;28;20270;-61
2022/01/09 05:23:09;;;;;;;13.77;2.97;;;4.70;99.90;;;;;;5047024;28;20184;-61
2022/01/09 05:25:38;;;;;;;18.43;2.70;;;4.80;99.90;;;;;;5047792;28;20593;-61
2022/01/09 05:28:06;;;;;;;8.30;2.63;;;4.70;99.90;;;;;;5047105;28;20540;-61
2022/01/09 05:30:35;;;;;;;14.87;3.00;;;4.70;99.90;;;;;;5048491;28;20598;-61
2022/01/09 05:33:03;;;;;;;15.40;3.17;;;4.80;99.90;;;;;;5049714;28;20757;-61
2022/01/09 05:35:32;;;;;;;15.30;2.77;;;4.70;99.90;;;;;;5045975;28;20576;-61
2022/01/09 05:38:01;;;;;;;17.80;3.23;;;4.70;99.90;;;;;;5046764;28;20734;-61
2022/01/09 05:40:30;;;;;;;18.83;3.03;;;4.70;99.90;;;;;;5050753;28;20200;-61
2022/01/09 05:42:58;;;;;;;13.63;2.90;;;4.70;99.90;;;;;;5049624;28;20962;-60
2022/01/09 05:45:27;;;;;;;14.43;3.00;;;4.70;99.90;;;;;;5047513;28;20275;-60
2022/01/09 05:47:55;;;;;;;19.47;3.40;;;4.70;99.90;;;;;;5050148;28;20732;-61
2022/01/09 05:50:24;;;;;;;14.77;3.20;;;4.70;99.90;;;;;;5046778;28;20193;-61
2022/01/09 05:52:52;;;;;;;11.17;3.30;;;4.60;99.90;;;;;;5048253;28;20302;-60
2022/01/09 05:55:22;;;;;;;9.23;3.47;;;4.60;99.90;;;;;;5033760;28;20284;-60
2022/01/09 05:57:50;;;;;;;11.70;2.83;;;4.50;99.90;;;;;;5047524;28;20239;-61
2022/01/09 06:00:19;;;;;;;15.50;3.20;;;4.50;99.90;;;;;;5046962;28;20280;-61
2022/01/09 06:03:06;;;;;;;21.00;3.07;;;4.40;99.90;;;;;;5048165;28;20703;-61
2022/01/09 06:05:34;;;;;;;14.80;2.83;;;4.40;99.90;;;;;;5044357;28;20192;-61
2022/01/09 06:08:03;;;;;;;14.43;3.97;;;4.30;99.90;;;;;;5048042;28;20221;-61
2022/01/09 06:10:33;;;;;;;17.27;3.40;;;4.40;99.90;;;;;;5049508;28;20280;-61
2022/01/09 06:13:02;;;;;;;11.97;3.07;;;4.40;99.90;;;;;;5047521;28;20263;-61
2022/01/09 06:15:30;;;;;;;9.00;2.73;;;4.40;99.90;;;;;;5047439;28;20207;-61
2022/01/09 06:17:58;;;;;;;15.43;3.40;;;4.50;99.90;;;;;;5048608;28;20749;-61
2022/01/09 06:20:27;;;;;;;9.73;2.87;;;4.40;99.90;;;;;;5042638;28;20283;-61
2022/01/09 06:22:55;;;;;;;15.37;2.70;;;4.40;99.90;;;;;;5049784;28;20251;-61
2022/01/09 06:25:24;;;;;;;10.27;3.00;;;4.40;99.90;;;;;;5046316;28;20217;-61
2022/01/09 06:27:54;;;;;;;14.80;2.97;;;4.40;99.90;;;;;;5049433;28;20607;-61
2022/01/09 06:30:22;;;;;;;14.73;3.03;;;4.30;99.90;;;;;;5044411;28;20247;-61
2022/01/09 06:32:50;;;;;;;9.53;2.97;;;4.30;99.90;;;;;;5045234;28;20606;-61
2022/01/09 06:35:19;;;;;;;14.93;3.00;;;4.30;99.90;;;;;;5043622;28;20636;-61
2022/01/09 06:37:48;;;;;;;11.17;2.87;;;4.30;99.90;;;;;;5047538;28;20189;-61
2022/01/09 06:40:17;;;;;;;13.80;3.10;;;4.30;99.90;;;;;;5046878;28;20741;-60
2022/01/09 06:42:45;;;;;;;17.77;3.10;;;4.30;99.90;;;;;;5046226;28;20762;-61
2022/01/09 06:45:15;;;;;;;13.60;3.27;;;4.30;99.90;;;;;;5042097;28;20590;-61
2022/01/09 06:47:43;;;;;;;14.93;5.60;;;4.30;99.90;;;;;;5047543;28;20287;-60
2022/01/09 06:50:14;;;;;;;13.77;3.10;;;4.30;99.90;;;;;;5059232;28;20660;-61
2022/01/09 06:52:42;;;;;;;12.60;3.23;;;4.30;99.90;;;;;;5039778;28;20267;-61
2022/01/09 06:55:11;;;;;;;9.27;2.80;;;4.30;99.90;;;;;;5042706;28;20246;-61
2022/01/09 06:57:40;;;;;;;22.37;3.47;;;4.30;99.90;;;;;;5045845;28;20200;-61
2022/01/09 07:00:13;;;;;;;13.60;3.60;;;4.30;99.90;;;;;;5048691;28;20296;-61
2022/01/09 07:02:43;;;;;;;10.27;3.43;;;4.30;99.90;;;;;;5046141;28;20291;-60
2022/01/09 07:05:12;;;;;;;12.80;3.20;;;4.40;99.90;;;;;;5046339;28;20193;-61
2022/01/09 07:07:41;;;;;;;18.80;3.03;;;4.40;99.90;;;;;;5042624;28;20277;-61
2022/01/09 07:10:11;;;;;;;13.13;2.87;;;4.50;99.90;;;;;;5045405;28;20201;-61
2022/01/09 07:12:39;;;;;;;10.43;2.93;;;4.50;99.90;;;;;;5047334;28;20232;-60
2022/01/09 07:15:09;;;;;;;17.93;3.10;;;4.50;99.90;;;;;;5048501;28;20227;-61
2022/01/09 07:17:37;;;;;;;22.27;4.63;;;4.50;99.90;;;;;;5046784;28;20275;-61
2022/01/09 07:20:09;;;;;;;19.10;3.43;;;4.50;99.90;;;;;;5044179;28;20259;-61
2022/01/09 07:22:37;;;;;;;9.87;3.90;;;4.50;99.90;;;;;;5037792;28;20186;-60
2022/01/09 07:25:06;;;;;;;15.03;3.23;;;4.40;99.90;;;;;;5047400;28;20207;-61
2022/01/09 07:27:35;;;;;;;13.53;3.63;;;4.30;99.90;;;;;;5047124;28;20236;-61
2022/01/09 07:30:04;;;;;;;11.00;3.63;;;4.20;99.90;;;;;;5048251;28;20565;-61
2022/01/09 07:32:36;;;;;;;12.07;3.20;;;4.20;99.90;;;;;;5044471;28;20201;-61
2022/01/09 07:35:07;;;;;;;16.57;2.87;;;4.20;99.90;;;;;;5046308;28;20263;-61
2022/01/09 07:37:36;;;;;;;12.30;3.23;;;4.30;99.90;;;;;;5036701;28;20416;-61
2022/01/09 07:40:05;;;;;;;14.93;3.43;;;4.20;99.90;;;;;;5046022;28;20602;-61
2022/01/09 07:42:33;;;;;;;12.03;3.77;;;4.20;99.90;;;;;;5045328;28;20181;-61
2022/01/09 07:45:06;;;;;;;16.87;3.33;;;4.20;99.90;;;;;;5044617;28;20288;-61
2022/01/09 07:47:35;;;;;;;15.57;3.00;;;4.20;99.90;;;;;;5046318;28;20262;-60
2022/01/09 07:50:04;;;;;;;13.20;3.13;;;4.20;99.90;;;;;;5041090;28;20259;-61
2022/01/09 07:52:34;;;;;;;20.00;3.67;;;4.20;99.90;;;;;;5045135;28;20709;-61
2022/01/09 07:55:05;;;;;;;19.80;3.57;;;4.20;99.90;;;;;;5044926;28;20192;-61
2022/01/09 07:57:34;;;;;;;15.40;3.13;;;4.20;99.90;;;;;;5044773;28;20910;-61
2022/01/09 08:00:04;;;;;;;17.50;3.83;;;4.30;99.90;;;;;;5047093;28;20623;-61
2022/01/09 08:02:32;;;;;;;15.00;4.10;;;4.20;99.90;;;;;;5041293;28;20686;-61
2022/01/09 08:05:01;;;;;;;17.50;3.40;;;4.20;99.90;;;;;;5046005;28;20262;-61
2022/01/09 08:07:29;;;;;;;13.50;3.00;;;4.20;99.90;;;;;;5038987;28;20213;-61
2022/01/09 08:09:59;;;;;;;12.47;3.50;;;4.20;99.90;;;;;;5047249;28;20262;-60
2022/01/09 08:12:27;;;;;;;14.43;3.60;;;4.20;99.90;;;;;;5044700;28;20231;-61
2022/01/09 08:14:56;;;;;;;15.73;3.97;;;4.30;99.90;;;;;;5045992;28;20280;-61
2022/01/09 08:17:24;;;;;;;20.77;3.67;;;4.20;99.90;;;;;;5039421;28;20194;-61
2022/01/09 08:19:53;;;;;;;17.93;4.27;;;4.20;99.90;;;;;;5042998;28;20201;-61
2022/01/09 08:22:21;;;;;;;10.93;3.93;;;4.30;99.90;;;;;;5046925;28;20189;-61
2022/01/09 08:24:50;;;;;;;20.80;4.97;;;4.30;99.90;;;;;;5042500;28;20272;-61
2022/01/09 08:27:19;;;;;;;11.20;4.17;;;4.40;99.90;;;;;;5043259;28;20894;-61
2022/01/09 08:29:48;;;;;;;19.73;4.50;;;4.40;99.90;;;;;;5047875;28;20228;-60
2022/01/09 08:32:16;;;;;;;13.47;3.87;;;4.40;99.90;;;;;;5042518;28;20201;-60
2022/01/09 08:34:45;;;;;;;15.37;4.13;;;4.50;99.90;;;;;;5041140;28;20271;-61
2022/01/09 08:37:14;;;;;;;14.17;5.73;;;4.40;99.90;;;;;;5043256;28;20212;-60
2022/01/09 08:39:44;;;;;;;18.07;4.40;;;4.50;99.90;;;;;;5045030;28;20201;-61
2022/01/09 08:42:13;;;;;;;15.40;4.43;;;4.50;99.90;;;;;;5039822;28;20287;-60
2022/01/09 08:44:43;;;;;;;19.10;4.80;;;4.50;99.90;;;;;;5044726;28;20302;-61
2022/01/09 08:47:12;;;;;;;15.83;3.70;;;4.50;99.90;;;;;;5042668;28;20208;-61
2022/01/09 08:49:44;;;;;;;16.87;4.00;;;4.60;99.90;;;;;;5044477;28;20626;-61
2022/01/09 08:52:13;;;;;;;16.73;4.53;;;4.60;99.90;;;;;;5045443;28;20247;-61
2022/01/09 08:54:41;;;;;;;12.33;3.40;;;4.60;99.90;;;;;;5045397;28;20304;-60
2022/01/09 08:57:10;;;;;;;16.10;3.73;;;4.60;99.90;;;;;;5044736;28;20201;-61
2022/01/09 08:59:39;;;;;;;18.47;5.53;;;4.50;99.90;;;;;;5046404;28;20208;-61
2022/01/09 09:02:09;;;;;;;13.67;3.80;;;4.50;99.90;;;;;;5044337;28;20541;-61
2022/01/09 09:04:38;;;;;;;18.87;4.10;;;4.50;99.90;;;;;;5043021;28;20228;-61
2022/01/09 09:07:08;;;;;;;25.77;9.57;;;4.50;99.90;;;;;;5043175;28;20194;-61
2022/01/09 09:09:37;;;;;;;74.37;33.73;;;4.60;99.90;;;;;;5047099;28;20207;-61
2022/01/09 09:12:06;;;;;;;15.50;5.53;;;4.70;99.90;;;;;;5045535;28;20204;-61
2022/01/09 09:14:34;;;;;;;8.27;3.17;;;4.80;99.90;;;;;;5046337;28;20255;-61
2022/01/09 09:17:03;;;;;;;10.63;3.60;;;4.80;99.90;;;;;;5040978;28;20200;-61
2022/01/09 09:19:33;;;;;;;17.63;3.40;;;4.80;99.90;;;;;;5044990;28;20272;-61
2022/01/09 09:22:01;;;;;;;15.80;3.30;;;4.90;99.90;;;;;;5046228;28;20210;-61
2022/01/09 09:24:30;;;;;;;16.30;3.53;;;4.90;99.90;;;;;;5047240;28;20679;-61
2022/01/09 09:26:58;;;;;;;18.03;4.03;;;5.00;99.90;;;;;;5049862;28;20228;-61
2022/01/09 09:29:26;;;;;;;13.37;3.30;;;5.10;99.90;;;;;;5046590;28;20239;-61
2022/01/09 09:31:56;;;;;;;14.83;3.67;;;5.10;99.90;;;;;;5050134;28;20258;-61
2022/01/09 09:34:24;;;;;;;15.17;3.63;;;5.10;99.90;;;;;;5051234;28;20232;-61
2022/01/09 09:36:54;;;;;;;13.67;3.70;;;5.10;99.90;;;;;;5043080;28;20221;-61
2022/01/09 09:39:22;;;;;;;23.53;8.93;;;5.10;99.90;;;;;;5048708;28;20645;-61
2022/01/09 09:41:51;;;;;;;32.33;10.17;;;5.30;99.90;;;;;;5049676;28;20277;-61
2022/01/09 09:44:20;;;;;;;23.53;8.97;;;5.60;99.90;;;;;;5047272;28;20268;-61
2022/01/09 09:46:49;;;;;;;20.43;4.23;;;5.80;99.90;;;;;;5045299;28;20200;-61
2022/01/09 09:49:18;;;;;;;10.57;3.73;;;6.00;99.90;;;;;;5046209;28;20193;-61
2022/01/09 09:51:47;;;;;;;22.40;6.83;;;6.00;99.90;;;;;;5047669;28;20200;-61
2022/01/09 09:54:17;;;;;;;15.70;4.03;;;6.10;99.90;;;;;;5046400;28;20208;-61
2022/01/09 09:56:45;;;;;;;16.57;3.30;;;6.10;99.90;;;;;;5047152;28;20236;-62
2022/01/09 09:59:13;;;;;;;16.30;3.50;;;6.10;99.90;;;;;;5049355;28;20239;-61
2022/01/09 10:01:42;;;;;;;12.43;3.60;;;6.20;99.90;;;;;;5046027;28;20532;-61
2022/01/09 10:04:11;;;;;;;19.13;3.40;;;6.40;99.90;;;;;;5047266;28;20208;-61
2022/01/09 10:06:44;;;;;;;11.93;3.80;;;6.50;99.90;;;;;;5045833;28;20190;-61
2022/01/09 10:09:14;;;;;;;12.13;5.00;;;6.70;99.90;;;;;;5045315;28;20216;-61
2022/01/09 10:11:50;;;;;;;12.77;5.00;;;6.80;99.90;;;;;;5048767;28;20193;-62
2022/01/09 10:14:21;;;;;;;14.33;3.80;;;7.10;99.90;;;;;;5025981;28;20575;-61
2022/01/09 10:17:16;;;;;;;10.17;3.23;;;7.40;99.90;;;;;;5050558;28;20232;-61
2022/01/09 10:19:47;;;;;;;8.50;3.07;;;7.50;99.90;;;;;;5048675;28;20250;-61
2022/01/09 10:22:33;;;;;;;10.30;3.80;;;7.50;99.90;;;;;;5044323;28;20283;-61
2022/01/09 10:25:22;;;;;;;10.03;3.00;;;7.40;99.90;;;;;;5045934;28;20775;-61
2022/01/09 10:27:57;;;;;;;10.43;3.20;;;7.40;99.90;;;;;;5046256;28;20188;-62
2022/01/09 10:30:27;;;;;;;10.90;3.60;;;7.50;99.90;;;;;;5048740;28;20246;-61
2022/01/09 10:32:57;;;;;;;11.83;3.43;;;7.60;99.90;;;;;;5036750;28;20201;-61
2022/01/09 10:35:27;;;;;;;21.00;3.47;;;7.50;99.90;;;;;;5037739;28;20824;-62
2022/01/09 10:38:15;;;;;;;11.00;3.20;;;7.60;99.90;;;;;;5042339;28;20203;-61
2022/01/09 10:40:49;;;;;;;9.77;3.07;;;7.60;99.90;;;;;;5043907;28;20196;-61
2022/01/09 10:43:20;;;;;;;13.83;3.43;;;7.70;99.90;;;;;;5043641;28;20200;-61
2022/01/09 10:45:56;;;;;;;13.53;3.30;;;7.80;99.90;;;;;;5037612;28;20280;-61
2022/01/09 10:48:26;;;;;;;13.27;5.80;;;7.80;99.90;;;;;;5042339;28;21034;-61
2022/01/09 10:50:55;;;;;;;13.87;3.47;;;7.90;99.90;;;;;;5045880;28;20683;-61
2022/01/09 10:53:29;;;;;;;22.73;3.67;;;7.90;99.90;;;;;;5048313;28;20239;-61
2022/01/09 10:56:10;;;;;;;17.27;4.97;;;8.00;99.90;;;;;;5048636;28;20744;-61
2022/01/09 10:58:43;;;;;;;11.70;3.90;;;8.10;99.90;;;;;;5044675;28;20274;-61
2022/01/09 11:01:17;;;;;;;10.90;3.47;;;8.10;99.90;;;;;;5048163;28;20266;-61
2022/01/09 11:03:47;;;;;;;14.87;3.43;;;8.10;99.90;;;;;;5044706;28;20213;-62
2022/01/09 11:06:17;;;;;;;15.23;4.70;;;8.20;99.90;;;;;;5021490;28;20207;-61
2022/01/09 11:08:45;;;;;;;18.97;4.10;;;8.30;99.90;;;;;;5043402;28;20208;-61
2022/01/09 11:11:29;;;;;;;14.23;4.50;;;8.30;99.90;;;;;;5047625;28;20204;-61
2022/01/09 11:14:02;;;;;;;11.60;3.63;;;8.30;99.90;;;;;;5044151;28;20757;-62
2022/01/09 11:16:37;;;;;;;13.23;3.80;;;8.40;99.90;;;;;;5047157;28;20224;-62
2022/01/09 11:19:10;;;;;;;13.13;3.57;;;8.60;99.90;;;;;;5042853;28;20224;-62
2022/01/09 11:21:41;;;;;;;17.27;4.07;;;8.60;99.90;;;;;;5047666;28;20635;-62
2022/01/09 11:24:39;;;;;;;16.13;3.40;;;8.60;99.90;;;;;;5042104;28;20189;-61
2022/01/09 11:27:18;;;;;;;13.40;3.13;;;8.60;99.90;;;;;;5039130;28;20201;-61
2022/01/09 11:30:00;;;;;;;11.63;3.43;;;8.70;99.90;;;;;;5044995;28;20705;-61
2022/01/09 11:32:38;;;;;;;13.13;4.30;;;8.70;99.90;;;;;;5045663;28;20204;-61
2022/01/09 11:35:13;;;;;;;20.20;3.87;;;8.80;99.90;;;;;;5031427;28;20238;-62
2022/01/09 11:37:55;;;;;;;12.07;3.80;;;8.80;99.90;;;;;;5036523;28;20703;-61
2022/01/09 11:40:25;;;;;;;12.87;3.50;;;8.90;99.90;;;;;;5030833;28;20760;-62
2022/01/09 11:43:01;;;;;;;11.40;2.83;;;8.90;99.90;;;;;;5038142;28;20193;-62
2022/01/09 11:45:49;;;;;;;16.23;3.73;;;8.80;99.90;;;;;;5042589;28;20192;-62
2022/01/09 11:48:20;;;;;;;15.97;3.83;;;9.00;99.90;;;;;;5044431;28;20201;-62
2022/01/09 11:51:11;;;;;;;17.43;3.77;;;9.20;99.90;;;;;;5043591;28;20323;-62
2022/01/09 11:54:00;;;;;;;15.93;3.67;;;9.30;99.90;;;;;;5043736;28;20200;-63
2022/01/09 11:57:08;;;;;;;13.07;3.23;;;9.30;99.90;;;;;;5045295;28;20232;-63
2022/01/09 11:59:51;;;;;;;10.77;3.40;;;9.30;99.90;;;;;;5018754;28;20203;-62
2022/01/09 12:02:38;;;;;;;64.73;22.40;;;9.40;99.90;;;;;;5045358;28;20810;-63
2022/01/09 12:06:10;;;;;;;12.33;3.70;;;9.50;99.90;;;;;;5043100;28;20192;-63
2022/01/09 12:09:08;;;;;;;8.03;3.07;;;9.70;99.90;;;;;;5042916;28;20201;-63
2022/01/09 12:12:08;;;;;;;16.63;3.33;;;9.90;99.90;;;;;;5031854;28;20785;-63
2022/01/09 12:15:02;;;;;;;17.23;3.70;;;9.90;99.90;;;;;;5044406;28;20230;-63
2022/01/09 12:17:40;;;;;;;15.93;3.93;;;9.90;99.90;;;;;;5046787;28;20205;-63
2022/01/09 12:20:23;;;;;;;11.97;3.90;;;10.00;99.90;;;;;;5043159;28;20789;-63
2022/01/09 12:23:02;;;;;;;14.27;3.43;;;10.00;99.90;;;;;;5028640;28;20230;-63
2022/01/09 12:25:56;;;;;;;18.37;3.90;;;10.10;99.90;;;;;;5038321;28;20283;-63
2022/01/09 12:28:44;;;;;;;12.37;3.60;;;10.10;99.90;;;;;;5046815;28;20750;-63
2022/01/09 12:31:28;;;;;;;15.10;3.43;;;10.30;99.90;;;;;;5041780;28;20513;-63
2022/01/09 12:34:02;;;;;;;15.00;3.57;;;10.20;99.90;;;;;;5043476;28;20201;-63
2022/01/09 12:36:33;;;;;;;19.10;3.53;;;10.10;99.90;;;;;;5039598;28;20707;-63
2022/01/09 12:39:05;;;;;;;10.97;3.60;;;10.00;99.90;;;;;;5052729;28;20211;-63
2022/01/09 12:41:39;;;;;;;18.93;3.53;;;9.70;99.90;;;;;;5046809;28;20209;-63
2022/01/09 12:44:09;;;;;;;11.50;3.47;;;9.30;99.90;;;;;;5046825;28;20185;-62
2022/01/09 12:46:41;;;;;;;20.47;3.83;;;9.10;99.90;;;;;;5046649;28;20614;-63
2022/01/09 12:49:15;;;;;;;15.97;4.50;;;9.00;99.90;;;;;;5046907;28;20192;-63
2022/01/09 12:51:50;;;;;;;14.10;3.37;;;9.00;99.90;;;;;;5046118;28;20196;-63
2022/01/09 12:54:19;;;;;;;14.83;4.53;;;9.20;99.90;;;;;;5047116;28;20228;-63
2022/01/09 12:56:48;;;;;;;12.93;3.70;;;9.30;99.90;;;;;;5049480;28;20777;-63
2022/01/09 12:59:16;;;;;;;6.87;2.93;;;9.30;99.90;;;;;;5044900;28;20302;-63
2022/01/09 13:01:46;;;;;;;20.17;5.47;;;9.50;99.90;;;;;;5046316;28;20203;-63
2022/01/09 13:04:18;;;;;;;8.87;2.90;;;9.80;99.90;;;;;;5046933;28;20216;-63
2022/01/09 13:06:49;;;;;;;13.47;3.53;;;9.80;99.90;;;;;;5043702;28;20200;-63
2022/01/09 13:09:21;;;;;;;12.93;3.50;;;10.10;99.90;;;;;;5048909;28;20259;-63